sensor_id;sensor_type;location;lat;lon;timestamp;temperature;humidity
18654;DHT22;9456;47.824;16.228;2022-12-13T00:01:42;-6.20;68.20
18654;DHT22;9456;47.824;16.228;2022-12-13T00:04:11;-6.20;68.60
18654;DHT22;9456;47.824;16.228;2022-12-13T00:06:41;-6.30;68.70
18654;DHT22;9456;47.824;16.228;2022-12-13T00:09:10;-6.30;68.70
18654;DHT22;9456;47.824;16.228;2022-12-13T00:11:39;-6.40;68.90
18654;DHT22;9456;47.824;16.228;2022-12-13T00:14:08;-6.40;70.00
18654;DHT22;9456;47.824;16.228;2022-12-13T00:16:37;-6.40;69.30
18654;DHT22;9456;47.824;16.228;2022-12-13T00:19:06;-6.50;69.10
18654;DHT22;9456;47.824;16.228;2022-12-13T00:21:35;-6.50;69.10
18654;DHT22;9456;47.824;16.228;2022-12-13T00:24:05;-6.50;69.10
18654;DHT22;9456;47.824;16.228;2022-12-13T00:26:44;-6.50;69.30
18654;DHT22;9456;47.824;16.228;2022-12-13T00:29:13;-6.60;69.30
18654;DHT22;9456;47.824;16.228;2022-12-13T00:31:42;-6.60;69.40
18654;DHT22;9456;47.824;16.228;2022-12-13T00:34:11;-6.60;69.40
18654;DHT22;9456;47.824;16.228;2022-12-13T00:36:40;-6.70;69.30
18654;DHT22;9456;47.824;16.228;2022-12-13T00:39:09;-6.80;69.40
18654;DHT22;9456;47.824;16.228;2022-12-13T00:41:38;-6.80;69.60
18654;DHT22;9456;47.824;16.228;2022-12-13T00:44:09;-6.90;69.90
18654;DHT22;9456;47.824;16.228;2022-12-13T00:46:38;-7.00;70.10
18654;DHT22;9456;47.824;16.228;2022-12-13T00:49:08;-7.00;70.50
18654;DHT22;9456;47.824;16.228;2022-12-13T00:51:37;-7.00;70.60
18654;DHT22;9456;47.824;16.228;2022-12-13T00:54:06;-7.10;70.70
18654;DHT22;9456;47.824;16.228;2022-12-13T00:56:35;-7.10;71.00
18654;DHT22;9456;47.824;16.228;2022-12-13T00:59:04;-7.10;71.50
18654;DHT22;9456;47.824;16.228;2022-12-13T01:01:33;-7.10;71.70
18654;DHT22;9456;47.824;16.228;2022-12-13T01:04:03;-7.10;72.00
18654;DHT22;9456;47.824;16.228;2022-12-13T01:06:33;-7.10;71.80
18654;DHT22;9456;47.824;16.228;2022-12-13T01:09:02;-7.00;72.30
18654;DHT22;9456;47.824;16.228;2022-12-13T01:11:30;-7.00;72.30
18654;DHT22;9456;47.824;16.228;2022-12-13T01:14:00;-7.10;72.00
18654;DHT22;9456;47.824;16.228;2022-12-13T01:16:29;-7.10;72.20
18654;DHT22;9456;47.824;16.228;2022-12-13T01:18:58;-7.20;72.40
18654;DHT22;9456;47.824;16.228;2022-12-13T01:21:27;-7.20;73.10
18654;DHT22;9456;47.824;16.228;2022-12-13T01:23:59;-7.10;74.20
18654;DHT22;9456;47.824;16.228;2022-12-13T01:26:29;-7.10;73.70
18654;DHT22;9456;47.824;16.228;2022-12-13T01:29:10;-7.00;73.80
18654;DHT22;9456;47.824;16.228;2022-12-13T01:31:39;-7.00;73.70
18654;DHT22;9456;47.824;16.228;2022-12-13T01:34:08;-7.00;73.60
18654;DHT22;9456;47.824;16.228;2022-12-13T01:36:38;-7.10;73.40
18654;DHT22;9456;47.824;16.228;2022-12-13T01:39:07;-7.10;73.20
18654;DHT22;9456;47.824;16.228;2022-12-13T01:41:36;-7.20;73.40
18654;DHT22;9456;47.824;16.228;2022-12-13T01:44:05;-7.20;73.60
18654;DHT22;9456;47.824;16.228;2022-12-13T01:46:34;-7.30;73.80
18654;DHT22;9456;47.824;16.228;2022-12-13T01:49:04;-7.30;73.90
18654;DHT22;9456;47.824;16.228;2022-12-13T01:51:34;-7.30;73.90
18654;DHT22;9456;47.824;16.228;2022-12-13T01:54:03;-7.30;74.00
18654;DHT22;9456;47.824;16.228;2022-12-13T01:56:34;-7.30;74.30
18654;DHT22;9456;47.824;16.228;2022-12-13T01:59:02;-7.40;73.80
18654;DHT22;9456;47.824;16.228;2022-12-13T02:01:30;-7.50;73.50
18654;DHT22;9456;47.824;16.228;2022-12-13T02:03:59;-7.50;73.80
18654;DHT22;9456;47.824;16.228;2022-12-13T02:06:31;-7.60;74.00
18654;DHT22;9456;47.824;16.228;2022-12-13T02:08:59;-7.60;74.40
18654;DHT22;9456;47.824;16.228;2022-12-13T02:11:28;-7.60;74.90
18654;DHT22;9456;47.824;16.228;2022-12-13T02:13:57;-7.70;74.90
18654;DHT22;9456;47.824;16.228;2022-12-13T02:16:33;-7.70;74.90
18654;DHT22;9456;47.824;16.228;2022-12-13T02:19:15;-7.70;74.50
18654;DHT22;9456;47.824;16.228;2022-12-13T02:21:44;-7.80;74.40
18654;DHT22;9456;47.824;16.228;2022-12-13T02:24:23;-7.90;74.50
18654;DHT22;9456;47.824;16.228;2022-12-13T02:27:00;-7.90;74.90
18654;DHT22;9456;47.824;16.228;2022-12-13T02:29:57;-7.90;75.40
18654;DHT22;9456;47.824;16.228;2022-12-13T02:32:30;-7.90;75.50
18654;DHT22;9456;47.824;16.228;2022-12-13T02:35:02;-7.90;75.60
18654;DHT22;9456;47.824;16.228;2022-12-13T02:37:30;-7.90;75.60
18654;DHT22;9456;47.824;16.228;2022-12-13T02:39:59;-7.90;75.50
18654;DHT22;9456;47.824;16.228;2022-12-13T02:42:28;-7.90;75.40
18654;DHT22;9456;47.824;16.228;2022-12-13T02:44:57;-8.00;75.20
18654;DHT22;9456;47.824;16.228;2022-12-13T02:47:25;-8.00;75.30
18654;DHT22;9456;47.824;16.228;2022-12-13T02:49:56;-8.00;75.50
18654;DHT22;9456;47.824;16.228;2022-12-13T02:52:24;-8.00;75.80
18654;DHT22;9456;47.824;16.228;2022-12-13T02:54:54;-7.90;76.00
18654;DHT22;9456;47.824;16.228;2022-12-13T02:57:30;-7.90;75.60
18654;DHT22;9456;47.824;16.228;2022-12-13T02:59:59;-7.80;75.50
18654;DHT22;9456;47.824;16.228;2022-12-13T03:02:30;-7.80;75.20
18654;DHT22;9456;47.824;16.228;2022-12-13T03:05:01;-7.80;74.80
18654;DHT22;9456;47.824;16.228;2022-12-13T03:07:47;-7.80;74.60
18654;DHT22;9456;47.824;16.228;2022-12-13T03:10:16;-7.80;74.50
18654;DHT22;9456;47.824;16.228;2022-12-13T03:12:48;-7.80;74.40
18654;DHT22;9456;47.824;16.228;2022-12-13T03:15:35;-7.80;74.50
18654;DHT22;9456;47.824;16.228;2022-12-13T03:18:04;-7.90;74.00
18654;DHT22;9456;47.824;16.228;2022-12-13T03:20:32;-7.90;74.50
18654;DHT22;9456;47.824;16.228;2022-12-13T03:23:01;-7.90;74.50
18654;DHT22;9456;47.824;16.228;2022-12-13T03:25:30;-7.90;74.70
18654;DHT22;9456;47.824;16.228;2022-12-13T03:28:00;-8.00;74.40
18654;DHT22;9456;47.824;16.228;2022-12-13T03:30:32;-8.10;74.10
18654;DHT22;9456;47.824;16.228;2022-12-13T03:33:01;-8.10;74.20
18654;DHT22;9456;47.824;16.228;2022-12-13T03:35:30;-8.20;74.30
18654;DHT22;9456;47.824;16.228;2022-12-13T03:37:59;-8.20;74.50
18654;DHT22;9456;47.824;16.228;2022-12-13T03:40:29;-8.30;74.80
18654;DHT22;9456;47.824;16.228;2022-12-13T03:42:58;-8.40;74.80
18654;DHT22;9456;47.824;16.228;2022-12-13T03:45:27;-8.40;75.00
18654;DHT22;9456;47.824;16.228;2022-12-13T03:47:56;-8.40;75.20
18654;DHT22;9456;47.824;16.228;2022-12-13T03:50:25;-8.40;75.60
18654;DHT22;9456;47.824;16.228;2022-12-13T03:52:59;-8.40;75.50
18654;DHT22;9456;47.824;16.228;2022-12-13T03:55:28;-8.40;75.80
18654;DHT22;9456;47.824;16.228;2022-12-13T03:57:57;-8.40;76.00
18654;DHT22;9456;47.824;16.228;2022-12-13T04:00:26;-8.40;76.20
18654;DHT22;9456;47.824;16.228;2022-12-13T04:02:54;-8.40;76.50
18654;DHT22;9456;47.824;16.228;2022-12-13T04:05:23;-8.30;76.90
18654;DHT22;9456;47.824;16.228;2022-12-13T04:07:52;-8.40;75.90
18654;DHT22;9456;47.824;16.228;2022-12-13T04:10:21;-8.40;75.90
18654;DHT22;9456;47.824;16.228;2022-12-13T04:12:50;-8.50;76.20
18654;DHT22;9456;47.824;16.228;2022-12-13T04:15:37;-8.50;76.20
18654;DHT22;9456;47.824;16.228;2022-12-13T04:18:06;-8.60;76.10
18654;DHT22;9456;47.824;16.228;2022-12-13T04:20:35;-8.60;76.50
18654;DHT22;9456;47.824;16.228;2022-12-13T04:23:04;-8.60;76.60
18654;DHT22;9456;47.824;16.228;2022-12-13T04:25:33;-8.60;76.90
18654;DHT22;9456;47.824;16.228;2022-12-13T04:28:02;-8.60;76.80
18654;DHT22;9456;47.824;16.228;2022-12-13T04:30:31;-8.60;76.50
18654;DHT22;9456;47.824;16.228;2022-12-13T04:33:00;-8.70;76.40
18654;DHT22;9456;47.824;16.228;2022-12-13T04:35:29;-8.70;76.60
18654;DHT22;9456;47.824;16.228;2022-12-13T04:40:43;-8.70;77.00
18654;DHT22;9456;47.824;16.228;2022-12-13T04:43:15;-8.70;76.90
18654;DHT22;9456;47.824;16.228;2022-12-13T04:45:44;-8.80;76.40
18654;DHT22;9456;47.824;16.228;2022-12-13T04:48:13;-8.90;76.20
18654;DHT22;9456;47.824;16.228;2022-12-13T04:50:42;-9.00;76.20
18654;DHT22;9456;47.824;16.228;2022-12-13T04:53:14;-9.00;76.60
18654;DHT22;9456;47.824;16.228;2022-12-13T04:55:43;-9.10;76.60
18654;DHT22;9456;47.824;16.228;2022-12-13T04:58:12;-9.10;76.90
18654;DHT22;9456;47.824;16.228;2022-12-13T05:00:41;-9.10;77.30
18654;DHT22;9456;47.824;16.228;2022-12-13T05:03:10;-9.00;78.00
18654;DHT22;9456;47.824;16.228;2022-12-13T05:05:40;-9.00;78.10
18654;DHT22;9456;47.824;16.228;2022-12-13T05:08:09;-9.00;78.20
18654;DHT22;9456;47.824;16.228;2022-12-13T05:10:37;-8.90;78.40
18654;DHT22;9456;47.824;16.228;2022-12-13T05:13:06;-8.90;78.40
18654;DHT22;9456;47.824;16.228;2022-12-13T05:15:35;-8.80;78.50
18654;DHT22;9456;47.824;16.228;2022-12-13T05:18:05;-8.80;78.30
18654;DHT22;9456;47.824;16.228;2022-12-13T05:20:35;-8.80;78.10
18654;DHT22;9456;47.824;16.228;2022-12-13T05:23:04;-8.90;77.90
18654;DHT22;9456;47.824;16.228;2022-12-13T05:25:33;-8.90;77.90
18654;DHT22;9456;47.824;16.228;2022-12-13T05:28:02;-8.90;77.90
18654;DHT22;9456;47.824;16.228;2022-12-13T05:30:31;-8.80;78.10
18654;DHT22;9456;47.824;16.228;2022-12-13T05:33:01;-8.90;78.00
18654;DHT22;9456;47.824;16.228;2022-12-13T05:35:30;-8.90;78.00
18654;DHT22;9456;47.824;16.228;2022-12-13T05:37:59;-8.90;78.00
18654;DHT22;9456;47.824;16.228;2022-12-13T05:40:29;-8.90;78.00
18654;DHT22;9456;47.824;16.228;2022-12-13T05:42:58;-8.90;78.00
18654;DHT22;9456;47.824;16.228;2022-12-13T05:45:27;-8.90;78.80
18654;DHT22;9456;47.824;16.228;2022-12-13T05:47:56;-9.00;77.80
18654;DHT22;9456;47.824;16.228;2022-12-13T05:50:25;-9.00;78.60
18654;DHT22;9456;47.824;16.228;2022-12-13T05:52:54;-9.00;77.90
18654;DHT22;9456;47.824;16.228;2022-12-13T05:55:23;-9.10;78.00
18654;DHT22;9456;47.824;16.228;2022-12-13T05:57:52;-9.10;78.10
18654;DHT22;9456;47.824;16.228;2022-12-13T06:00:21;-9.10;78.20
18654;DHT22;9456;47.824;16.228;2022-12-13T06:02:50;-9.10;78.30
18654;DHT22;9456;47.824;16.228;2022-12-13T06:05:19;-9.10;78.40
18654;DHT22;9456;47.824;16.228;2022-12-13T06:07:48;-9.10;78.40
18654;DHT22;9456;47.824;16.228;2022-12-13T06:10:17;-9.10;78.50
18654;DHT22;9456;47.824;16.228;2022-12-13T06:12:46;-9.10;78.60
18654;DHT22;9456;47.824;16.228;2022-12-13T06:15:15;-9.20;78.40
18654;DHT22;9456;47.824;16.228;2022-12-13T06:17:44;-9.20;78.30
18654;DHT22;9456;47.824;16.228;2022-12-13T06:20:13;-9.20;78.30
18654;DHT22;9456;47.824;16.228;2022-12-13T06:22:42;-9.20;78.30
18654;DHT22;9456;47.824;16.228;2022-12-13T06:25:12;-9.20;79.20
18654;DHT22;9456;47.824;16.228;2022-12-13T06:27:41;-9.20;78.70
18654;DHT22;9456;47.824;16.228;2022-12-13T06:30:12;-9.20;78.70
18654;DHT22;9456;47.824;16.228;2022-12-13T06:32:41;-9.10;78.80
18654;DHT22;9456;47.824;16.228;2022-12-13T06:35:10;-9.10;78.40
18654;DHT22;9456;47.824;16.228;2022-12-13T06:37:39;-9.10;78.20
18654;DHT22;9456;47.824;16.228;2022-12-13T06:40:09;-9.10;78.30
18654;DHT22;9456;47.824;16.228;2022-12-13T06:42:41;-9.10;77.90
18654;DHT22;9456;47.824;16.228;2022-12-13T06:45:11;-9.10;78.10
18654;DHT22;9456;47.824;16.228;2022-12-13T06:47:40;-9.00;78.60
18654;DHT22;9456;47.824;16.228;2022-12-13T06:50:09;-9.00;79.00
18654;DHT22;9456;47.824;16.228;2022-12-13T06:52:38;-9.00;77.80
18654;DHT22;9456;47.824;16.228;2022-12-13T06:55:08;-9.00;77.70
18654;DHT22;9456;47.824;16.228;2022-12-13T06:57:37;-9.00;77.10
18654;DHT22;9456;47.824;16.228;2022-12-13T07:00:08;-8.80;77.70
18654;DHT22;9456;47.824;16.228;2022-12-13T07:02:37;-8.60;77.50
18654;DHT22;9456;47.824;16.228;2022-12-13T07:05:08;-8.50;77.00
18654;DHT22;9456;47.824;16.228;2022-12-13T07:07:36;-8.30;76.10
18654;DHT22;9456;47.824;16.228;2022-12-13T07:10:07;-8.10;75.10
18654;DHT22;9456;47.824;16.228;2022-12-13T07:12:36;-7.80;75.20
18654;DHT22;9456;47.824;16.228;2022-12-13T07:15:06;-7.50;75.40
18654;DHT22;9456;47.824;16.228;2022-12-13T07:17:35;-7.30;73.30
18654;DHT22;9456;47.824;16.228;2022-12-13T07:20:06;-7.10;71.90
18654;DHT22;9456;47.824;16.228;2022-12-13T07:22:35;-6.90;71.20
18654;DHT22;9456;47.824;16.228;2022-12-13T07:25:05;-6.50;70.90
18654;DHT22;9456;47.824;16.228;2022-12-13T07:27:34;-6.00;70.20
18654;DHT22;9456;47.824;16.228;2022-12-13T07:30:04;-5.50;67.60
18654;DHT22;9456;47.824;16.228;2022-12-13T07:32:33;-4.90;66.00
18654;DHT22;9456;47.824;16.228;2022-12-13T07:35:02;-4.40;63.90
18654;DHT22;9456;47.824;16.228;2022-12-13T07:37:31;-3.90;62.10
18654;DHT22;9456;47.824;16.228;2022-12-13T07:40:00;-2.80;61.30
18654;DHT22;9456;47.824;16.228;2022-12-13T07:42:29;-1.90;58.10
18654;DHT22;9456;47.824;16.228;2022-12-13T07:45:08;-1.90;55.10
18654;DHT22;9456;47.824;16.228;2022-12-13T07:47:37;-2.10;54.80
18654;DHT22;9456;47.824;16.228;2022-12-13T07:50:06;-2.20;55.30
18654;DHT22;9456;47.824;16.228;2022-12-13T07:52:35;-2.10;55.40
18654;DHT22;9456;47.824;16.228;2022-12-13T07:55:05;-2.10;55.30
18654;DHT22;9456;47.824;16.228;2022-12-13T07:57:34;-1.80;55.10
18654;DHT22;9456;47.824;16.228;2022-12-13T08:00:04;-1.80;54.70
18654;DHT22;9456;47.824;16.228;2022-12-13T08:02:33;-1.70;54.60
18654;DHT22;9456;47.824;16.228;2022-12-13T08:05:02;-0.80;54.40
18654;DHT22;9456;47.824;16.228;2022-12-13T08:07:31;-0.30;51.80
18654;DHT22;9456;47.824;16.228;2022-12-13T08:10:00;-0.30;50.80
18654;DHT22;9456;47.824;16.228;2022-12-13T08:12:29;-0.30;50.80
18654;DHT22;9456;47.824;16.228;2022-12-13T08:14:58;-0.40;51.00
18654;DHT22;9456;47.824;16.228;2022-12-13T08:17:27;0.40;50.80
18654;DHT22;9456;47.824;16.228;2022-12-13T08:19:56;0.70;48.70
18654;DHT22;9456;47.824;16.228;2022-12-13T08:22:25;0.40;48.20
18654;DHT22;9456;47.824;16.228;2022-12-13T08:24:54;0.50;49.00
18654;DHT22;9456;47.824;16.228;2022-12-13T08:27:23;0.50;48.70
18654;DHT22;9456;47.824;16.228;2022-12-13T08:29:52;0.40;48.80
18654;DHT22;9456;47.824;16.228;2022-12-13T08:32:21;0.90;49.00
18654;DHT22;9456;47.824;16.228;2022-12-13T08:34:49;1.70;47.10
18654;DHT22;9456;47.824;16.228;2022-12-13T08:37:18;1.40;46.00
18654;DHT22;9456;47.824;16.228;2022-12-13T08:39:47;1.40;46.60
18654;DHT22;9456;47.824;16.228;2022-12-13T08:42:17;1.30;46.50
18654;DHT22;9456;47.824;16.228;2022-12-13T08:44:47;1.20;46.70
18654;DHT22;9456;47.824;16.228;2022-12-13T08:47:20;1.00;46.70
18654;DHT22;9456;47.824;16.228;2022-12-13T08:49:48;0.90;46.50
18654;DHT22;9456;47.824;16.228;2022-12-13T08:52:17;1.10;47.20
18654;DHT22;9456;47.824;16.228;2022-12-13T08:54:47;1.90;46.70
18654;DHT22;9456;47.824;16.228;2022-12-13T08:57:16;2.60;44.20
18654;DHT22;9456;47.824;16.228;2022-12-13T08:59:45;2.50;44.20
18654;DHT22;9456;47.824;16.228;2022-12-13T09:02:14;2.10;44.50
18654;DHT22;9456;47.824;16.228;2022-12-13T09:04:43;1.80;45.60
18654;DHT22;9456;47.824;16.228;2022-12-13T09:07:12;1.70;45.90
18654;DHT22;9456;47.824;16.228;2022-12-13T09:09:41;1.70;45.90
18654;DHT22;9456;47.824;16.228;2022-12-13T09:12:10;2.10;45.60
18654;DHT22;9456;47.824;16.228;2022-12-13T09:14:39;2.40;44.90
18654;DHT22;9456;47.824;16.228;2022-12-13T09:17:08;2.70;44.50
18654;DHT22;9456;47.824;16.228;2022-12-13T09:19:37;3.20;42.90
18654;DHT22;9456;47.824;16.228;2022-12-13T09:22:06;3.90;41.40
18654;DHT22;9456;47.824;16.228;2022-12-13T09:24:35;4.60;40.10
18654;DHT22;9456;47.824;16.228;2022-12-13T09:27:04;5.10;38.20
18654;DHT22;9456;47.824;16.228;2022-12-13T09:29:33;4.90;37.60
18654;DHT22;9456;47.824;16.228;2022-12-13T09:32:02;4.20;38.00
18654;DHT22;9456;47.824;16.228;2022-12-13T09:34:31;3.70;40.00
18654;DHT22;9456;47.824;16.228;2022-12-13T09:37:00;4.60;39.60
18654;DHT22;9456;47.824;16.228;2022-12-13T09:39:29;5.00;38.40
18654;DHT22;9456;47.824;16.228;2022-12-13T09:41:58;5.10;38.30
18654;DHT22;9456;47.824;16.228;2022-12-13T09:44:28;5.10;38.20
18654;DHT22;9456;47.824;16.228;2022-12-13T09:46:56;5.50;38.10
18654;DHT22;9456;47.824;16.228;2022-12-13T09:49:27;5.60;36.60
18654;DHT22;9456;47.824;16.228;2022-12-13T09:51:55;4.80;37.00
18654;DHT22;9456;47.824;16.228;2022-12-13T09:54:26;4.40;38.50
18654;DHT22;9456;47.824;16.228;2022-12-13T09:56:55;4.30;38.80
18654;DHT22;9456;47.824;16.228;2022-12-13T09:59:25;4.20;39.60
18654;DHT22;9456;47.824;16.228;2022-12-13T10:01:55;4.10;40.10
18654;DHT22;9456;47.824;16.228;2022-12-13T10:04:23;3.70;40.40
18654;DHT22;9456;47.824;16.228;2022-12-13T10:06:53;2.80;41.90
18654;DHT22;9456;47.824;16.228;2022-12-13T10:09:22;2.30;43.70
18654;DHT22;9456;47.824;16.228;2022-12-13T10:11:51;2.30;44.60
18654;DHT22;9456;47.824;16.228;2022-12-13T10:14:23;2.20;44.90
18654;DHT22;9456;47.824;16.228;2022-12-13T10:16:51;1.80;45.70
18654;DHT22;9456;47.824;16.228;2022-12-13T10:19:21;1.40;46.20
18654;DHT22;9456;47.824;16.228;2022-12-13T10:21:49;1.20;46.60
18654;DHT22;9456;47.824;16.228;2022-12-13T10:24:20;0.90;46.90
18654;DHT22;9456;47.824;16.228;2022-12-13T10:26:48;0.50;48.30
18654;DHT22;9456;47.824;16.228;2022-12-13T10:29:17;0.40;49.10
18654;DHT22;9456;47.824;16.228;2022-12-13T10:31:46;0.30;49.60
18654;DHT22;9456;47.824;16.228;2022-12-13T10:34:23;0.10;49.90
18654;DHT22;9456;47.824;16.228;2022-12-13T10:36:51;0.00;49.90
18654;DHT22;9456;47.824;16.228;2022-12-13T10:39:36;-0.20;50.60
18654;DHT22;9456;47.824;16.228;2022-12-13T10:42:05;-0.30;50.90
18654;DHT22;9456;47.824;16.228;2022-12-13T10:44:33;-0.30;50.90
18654;DHT22;9456;47.824;16.228;2022-12-13T10:47:11;-0.30;51.10
18654;DHT22;9456;47.824;16.228;2022-12-13T10:49:39;-0.40;51.40
18654;DHT22;9456;47.824;16.228;2022-12-13T10:54:48;-0.40;51.00
18654;DHT22;9456;47.824;16.228;2022-12-13T10:57:17;-0.40;50.60
18654;DHT22;9456;47.824;16.228;2022-12-13T10:59:47;-0.30;50.50
18654;DHT22;9456;47.824;16.228;2022-12-13T11:02:33;-0.30;49.90
18654;DHT22;9456;47.824;16.228;2022-12-13T11:05:21;-0.20;50.10
18654;DHT22;9456;47.824;16.228;2022-12-13T11:07:45;-0.20;50.10
18654;DHT22;9456;47.824;16.228;2022-12-13T11:10:20;-0.10;50.10
18654;DHT22;9456;47.824;16.228;2022-12-13T11:12:48;-0.10;49.80
18654;DHT22;9456;47.824;16.228;2022-12-13T11:15:18;0.00;49.20
18654;DHT22;9456;47.824;16.228;2022-12-13T11:17:47;0.00;49.10
18654;DHT22;9456;47.824;16.228;2022-12-13T11:20:18;0.10;49.20
18654;DHT22;9456;47.824;16.228;2022-12-13T11:22:46;0.10;49.20
18654;DHT22;9456;47.824;16.228;2022-12-13T11:25:21;0.20;49.30
18654;DHT22;9456;47.824;16.228;2022-12-13T11:27:55;0.20;48.70
18654;DHT22;9456;47.824;16.228;2022-12-13T11:30:23;0.30;48.70
18654;DHT22;9456;47.824;16.228;2022-12-13T11:33:05;0.30;48.80
18654;DHT22;9456;47.824;16.228;2022-12-13T11:35:35;0.30;48.60
18654;DHT22;9456;47.824;16.228;2022-12-13T11:38:04;0.40;48.60
18654;DHT22;9456;47.824;16.228;2022-12-13T11:40:33;0.50;48.30
18654;DHT22;9456;47.824;16.228;2022-12-13T11:43:03;0.50;47.90
18654;DHT22;9456;47.824;16.228;2022-12-13T11:45:32;0.60;47.70
18654;DHT22;9456;47.824;16.228;2022-12-13T11:48:02;0.70;47.10
18654;DHT22;9456;47.824;16.228;2022-12-13T11:50:32;0.70;47.00
18654;DHT22;9456;47.824;16.228;2022-12-13T11:53:21;0.80;46.60
18654;DHT22;9456;47.824;16.228;2022-12-13T11:55:51;0.80;45.80
18654;DHT22;9456;47.824;16.228;2022-12-13T11:58:21;0.80;46.50
18654;DHT22;9456;47.824;16.228;2022-12-13T12:00:51;0.90;45.90
18654;DHT22;9456;47.824;16.228;2022-12-13T12:03:20;0.90;45.50
18654;DHT22;9456;47.824;16.228;2022-12-13T12:05:49;1.00;45.80
18654;DHT22;9456;47.824;16.228;2022-12-13T12:08:21;1.00;45.40
18654;DHT22;9456;47.824;16.228;2022-12-13T12:10:50;1.10;45.30
18654;DHT22;9456;47.824;16.228;2022-12-13T12:13:19;1.20;44.70
18654;DHT22;9456;47.824;16.228;2022-12-13T12:15:48;1.20;44.70
18654;DHT22;9456;47.824;16.228;2022-12-13T12:18:17;1.30;45.30
18654;DHT22;9456;47.824;16.228;2022-12-13T12:21:02;1.30;44.60
18654;DHT22;9456;47.824;16.228;2022-12-13T12:23:34;1.30;45.30
18654;DHT22;9456;47.824;16.228;2022-12-13T12:26:03;1.30;44.60
18654;DHT22;9456;47.824;16.228;2022-12-13T12:28:33;1.30;44.30
18654;DHT22;9456;47.824;16.228;2022-12-13T12:31:02;1.30;44.70
18654;DHT22;9456;47.824;16.228;2022-12-13T12:33:32;1.30;44.90
18654;DHT22;9456;47.824;16.228;2022-12-13T12:36:11;1.30;44.90
18654;DHT22;9456;47.824;16.228;2022-12-13T12:38:53;1.30;44.80
18654;DHT22;9456;47.824;16.228;2022-12-13T12:41:31;1.30;44.70
18654;DHT22;9456;47.824;16.228;2022-12-13T12:44:17;1.30;45.30
18654;DHT22;9456;47.824;16.228;2022-12-13T12:46:48;1.30;44.70
18654;DHT22;9456;47.824;16.228;2022-12-13T12:52:30;1.30;44.90
18654;DHT22;9456;47.824;16.228;2022-12-13T12:54:59;1.20;45.00
18654;DHT22;9456;47.824;16.228;2022-12-13T12:57:35;1.30;45.40
18654;DHT22;9456;47.824;16.228;2022-12-13T13:00:04;1.20;45.10
18654;DHT22;9456;47.824;16.228;2022-12-13T13:02:34;1.20;45.30
18654;DHT22;9456;47.824;16.228;2022-12-13T13:05:02;1.30;45.40
18654;DHT22;9456;47.824;16.228;2022-12-13T13:07:31;1.20;45.00
18654;DHT22;9456;47.824;16.228;2022-12-13T13:10:00;1.20;45.20
18654;DHT22;9456;47.824;16.228;2022-12-13T13:12:28;1.20;45.60
18654;DHT22;9456;47.824;16.228;2022-12-13T13:14:57;1.20;45.60
18654;DHT22;9456;47.824;16.228;2022-12-13T13:17:57;1.20;46.00
18654;DHT22;9456;47.824;16.228;2022-12-13T13:20:27;1.20;46.50
18654;DHT22;9456;47.824;16.228;2022-12-13T13:22:57;1.10;46.50
18654;DHT22;9456;47.824;16.228;2022-12-13T13:25:29;1.00;46.90
18654;DHT22;9456;47.824;16.228;2022-12-13T13:28:04;1.00;47.30
18654;DHT22;9456;47.824;16.228;2022-12-13T13:30:33;1.00;47.40
18654;DHT22;9456;47.824;16.228;2022-12-13T13:33:02;1.00;47.40
18654;DHT22;9456;47.824;16.228;2022-12-13T13:35:56;0.90;47.50
18654;DHT22;9456;47.824;16.228;2022-12-13T13:38:56;0.90;47.40
18654;DHT22;9456;47.824;16.228;2022-12-13T13:42:06;0.90;47.50
18654;DHT22;9456;47.824;16.228;2022-12-13T13:47:41;0.90;47.70
18654;DHT22;9456;47.824;16.228;2022-12-13T14:08:46;0.60;48.80
18654;DHT22;9456;47.824;16.228;2022-12-13T14:11:20;0.50;49.00
18654;DHT22;9456;47.824;16.228;2022-12-13T14:14:09;0.40;49.10
18654;DHT22;9456;47.824;16.228;2022-12-13T14:20:33;0.30;49.70
18654;DHT22;9456;47.824;16.228;2022-12-13T14:25:54;0.10;50.10
18654;DHT22;9456;47.824;16.228;2022-12-13T14:28:26;0.10;50.50
18654;DHT22;9456;47.824;16.228;2022-12-13T14:30:54;0.00;50.80
18654;DHT22;9456;47.824;16.228;2022-12-13T14:33:23;0.00;50.90
18654;DHT22;9456;47.824;16.228;2022-12-13T14:35:53;-0.10;51.00
18654;DHT22;9456;47.824;16.228;2022-12-13T14:38:22;-0.10;51.10
18654;DHT22;9456;47.824;16.228;2022-12-13T14:40:51;-0.20;51.30
18654;DHT22;9456;47.824;16.228;2022-12-13T14:43:24;-0.20;51.70
18654;DHT22;9456;47.824;16.228;2022-12-13T14:45:57;-0.30;51.80
18654;DHT22;9456;47.824;16.228;2022-12-13T14:48:25;-0.40;52.00
18654;DHT22;9456;47.824;16.228;2022-12-13T14:50:54;-0.40;52.30
18654;DHT22;9456;47.824;16.228;2022-12-13T14:53:24;-0.50;52.40
18654;DHT22;9456;47.824;16.228;2022-12-13T14:56:09;-0.60;52.50
18654;DHT22;9456;47.824;16.228;2022-12-13T14:58:50;-0.60;52.70
18654;DHT22;9456;47.824;16.228;2022-12-13T15:01:25;-0.70;52.80
18654;DHT22;9456;47.824;16.228;2022-12-13T15:03:53;-0.80;53.00
18654;DHT22;9456;47.824;16.228;2022-12-13T15:06:22;-0.80;53.10
18654;DHT22;9456;47.824;16.228;2022-12-13T15:08:51;-0.90;53.40
18654;DHT22;9456;47.824;16.228;2022-12-13T15:11:20;-0.90;53.50
18654;DHT22;9456;47.824;16.228;2022-12-13T15:13:49;-0.90;53.70
18654;DHT22;9456;47.824;16.228;2022-12-13T15:16:20;-0.90;53.70
18654;DHT22;9456;47.824;16.228;2022-12-13T15:18:48;-1.00;53.80
18654;DHT22;9456;47.824;16.228;2022-12-13T15:21:21;-1.00;54.00
18654;DHT22;9456;47.824;16.228;2022-12-13T15:23:50;-1.00;54.20
18654;DHT22;9456;47.824;16.228;2022-12-13T15:26:19;-1.10;54.20
18654;DHT22;9456;47.824;16.228;2022-12-13T15:28:48;-1.10;54.40
18654;DHT22;9456;47.824;16.228;2022-12-13T15:31:17;-1.20;54.60
18654;DHT22;9456;47.824;16.228;2022-12-13T15:33:45;-1.20;54.90
18654;DHT22;9456;47.824;16.228;2022-12-13T15:36:15;-1.30;55.10
18654;DHT22;9456;47.824;16.228;2022-12-13T15:38:46;-1.40;55.40
18654;DHT22;9456;47.824;16.228;2022-12-13T15:41:17;-1.40;55.60
18654;DHT22;9456;47.824;16.228;2022-12-13T15:43:46;-1.50;56.00
18654;DHT22;9456;47.824;16.228;2022-12-13T15:46:14;-1.50;56.30
18654;DHT22;9456;47.824;16.228;2022-12-13T15:48:43;-1.60;56.60
18654;DHT22;9456;47.824;16.228;2022-12-13T15:51:13;-1.60;56.90
18654;DHT22;9456;47.824;16.228;2022-12-13T15:53:58;-1.70;57.30
18654;DHT22;9456;47.824;16.228;2022-12-13T15:56:29;-1.80;57.70
18654;DHT22;9456;47.824;16.228;2022-12-13T15:58:58;-1.80;57.50
18654;DHT22;9456;47.824;16.228;2022-12-13T16:01:32;-1.80;58.10
18654;DHT22;9456;47.824;16.228;2022-12-13T16:04:00;-1.80;57.70
18654;DHT22;9456;47.824;16.228;2022-12-13T16:06:30;-1.80;57.70
18654;DHT22;9456;47.824;16.228;2022-12-13T16:08:59;-1.80;57.70
18654;DHT22;9456;47.824;16.228;2022-12-13T16:11:29;-1.80;58.00
18654;DHT22;9456;47.824;16.228;2022-12-13T16:14:25;-1.90;58.10
18654;DHT22;9456;47.824;16.228;2022-12-13T16:16:54;-1.90;58.30
18654;DHT22;9456;47.824;16.228;2022-12-13T16:19:23;-2.10;58.50
18654;DHT22;9456;47.824;16.228;2022-12-13T16:21:52;-2.10;59.60
18654;DHT22;9456;47.824;16.228;2022-12-13T16:24:21;-2.20;59.10
18654;DHT22;9456;47.824;16.228;2022-12-13T16:26:50;-2.30;59.50
18654;DHT22;9456;47.824;16.228;2022-12-13T16:29:21;-2.40;59.90
18654;DHT22;9456;47.824;16.228;2022-12-13T16:31:50;-2.40;60.00
18654;DHT22;9456;47.824;16.228;2022-12-13T16:34:19;-2.40;60.80